Terminal Aerodrome Forecast
Issued by NWS Tampa Bay Area, FL

Home | Current Version | Previous Version | Text Only | Print | Product List | Glossary On
Versions: 1 2 3 4 5 6 7 8 9 10 11 12 13 14 15 16 17
000
FTUS42 KTBW 091123
TAFSRQ
TAF
KSRQ 091123Z 0912/1012 03011KT P6SM VCSH OVC100
     FM091500 03012KT P6SM VCSH SCT050 BKN100 OVC250
     FM091900 03011KT P6SM SCT080 BKN100 BKN150=

USA.gov is the U.S. government's official web portal to all federal, state and local government web resources and services.